sensor_id;sensor_type;location;lat;lon;timestamp;P1;durP1;ratioP1;P2;durP2;ratioP2
46589;SDS011;32313;48.722;9.362;2023-07-22T00:01:57;10.43;;;7.80;;
46589;SDS011;32313;48.722;9.362;2023-07-22T00:04:23;8.77;;;7.90;;
46589;SDS011;32313;48.722;9.362;2023-07-22T00:06:48;9.90;;;9.00;;
46589;SDS011;32313;48.722;9.362;2023-07-22T00:09:14;7.97;;;7.17;;
46589;SDS011;32313;48.722;9.362;2023-07-22T00:11:39;8.17;;;7.30;;
46589;SDS011;32313;48.722;9.362;2023-07-22T00:14:05;8.33;;;7.63;;
46589;SDS011;32313;48.722;9.362;2023-07-22T00:16:31;8.87;;;8.00;;
46589;SDS011;32313;48.722;9.362;2023-07-22T00:18:58;11.13;;;10.03;;
46589;SDS011;32313;48.722;9.362;2023-07-22T00:21:24;9.97;;;9.17;;
46589;SDS011;32313;48.722;9.362;2023-07-22T00:23:49;11.63;;;10.53;;
46589;SDS011;32313;48.722;9.362;2023-07-22T00:26:15;10.47;;;9.37;;
46589;SDS011;32313;48.722;9.362;2023-07-22T00:28:41;10.47;;;9.40;;
46589;SDS011;32313;48.722;9.362;2023-07-22T00:31:08;9.50;;;8.70;;
46589;SDS011;32313;48.722;9.362;2023-07-22T00:33:34;9.97;;;9.10;;
46589;SDS011;32313;48.722;9.362;2023-07-22T00:35:59;11.90;;;9.03;;
46589;SDS011;32313;48.722;9.362;2023-07-22T00:38:25;10.17;;;9.17;;
46589;SDS011;32313;48.722;9.362;2023-07-22T00:40:54;8.63;;;7.93;;
46589;SDS011;32313;48.722;9.362;2023-07-22T00:43:19;11.00;;;9.90;;
46589;SDS011;32313;48.722;9.362;2023-07-22T00:45:45;10.90;;;9.90;;
46589;SDS011;32313;48.722;9.362;2023-07-22T00:48:11;9.40;;;8.50;;
46589;SDS011;32313;48.722;9.362;2023-07-22T00:50:39;9.87;;;8.87;;
46589;SDS011;32313;48.722;9.362;2023-07-22T00:53:05;10.13;;;9.13;;
46589;SDS011;32313;48.722;9.362;2023-07-22T00:55:31;10.73;;;9.73;;
46589;SDS011;32313;48.722;9.362;2023-07-22T00:57:58;9.43;;;8.63;;
46589;SDS011;32313;48.722;9.362;2023-07-22T01:00:24;10.20;;;9.27;;
46589;SDS011;32313;48.722;9.362;2023-07-22T01:02:49;9.47;;;8.57;;
46589;SDS011;32313;48.722;9.362;2023-07-22T01:05:15;10.27;;;9.23;;
46589;SDS011;32313;48.722;9.362;2023-07-22T01:07:41;9.43;;;8.63;;
46589;SDS011;32313;48.722;9.362;2023-07-22T01:10:07;10.00;;;8.97;;
46589;SDS011;32313;48.722;9.362;2023-07-22T01:12:33;10.80;;;9.70;;
46589;SDS011;32313;48.722;9.362;2023-07-22T01:14:59;13.20;;;10.10;;
46589;SDS011;32313;48.722;9.362;2023-07-22T01:17:25;10.37;;;9.47;;
46589;SDS011;32313;48.722;9.362;2023-07-22T01:19:51;11.27;;;9.50;;
46589;SDS011;32313;48.722;9.362;2023-07-22T01:22:18;9.73;;;8.83;;
46589;SDS011;32313;48.722;9.362;2023-07-22T01:24:45;9.80;;;8.93;;
46589;SDS011;32313;48.722;9.362;2023-07-22T01:27:11;10.07;;;8.77;;
46589;SDS011;32313;48.722;9.362;2023-07-22T01:29:39;10.63;;;9.67;;
46589;SDS011;32313;48.722;9.362;2023-07-22T01:32:05;9.50;;;8.60;;
46589;SDS011;32313;48.722;9.362;2023-07-22T01:34:31;9.77;;;8.87;;
46589;SDS011;32313;48.722;9.362;2023-07-22T01:36:57;9.83;;;9.03;;
46589;SDS011;32313;48.722;9.362;2023-07-22T01:39:23;9.70;;;8.70;;
46589;SDS011;32313;48.722;9.362;2023-07-22T01:41:49;9.50;;;8.60;;
46589;SDS011;32313;48.722;9.362;2023-07-22T01:44:14;8.90;;;8.03;;
46589;SDS011;32313;48.722;9.362;2023-07-22T01:46:40;9.13;;;8.23;;
46589;SDS011;32313;48.722;9.362;2023-07-22T01:49:10;9.20;;;8.30;;
46589;SDS011;32313;48.722;9.362;2023-07-22T01:51:37;8.43;;;7.63;;
46589;SDS011;32313;48.722;9.362;2023-07-22T01:54:04;13.47;;;8.40;;
46589;SDS011;32313;48.722;9.362;2023-07-22T01:56:30;9.30;;;8.40;;
46589;SDS011;32313;48.722;9.362;2023-07-22T01:58:56;9.13;;;8.07;;
46589;SDS011;32313;48.722;9.362;2023-07-22T02:01:21;9.00;;;8.10;;
46589;SDS011;32313;48.722;9.362;2023-07-22T02:03:47;8.57;;;7.67;;
46589;SDS011;32313;48.722;9.362;2023-07-22T02:06:13;8.07;;;7.37;;
46589;SDS011;32313;48.722;9.362;2023-07-22T02:08:38;8.33;;;7.53;;
46589;SDS011;32313;48.722;9.362;2023-07-22T02:11:05;8.23;;;7.47;;
46589;SDS011;32313;48.722;9.362;2023-07-22T02:13:32;8.67;;;7.77;;
46589;SDS011;32313;48.722;9.362;2023-07-22T02:15:59;8.77;;;7.37;;
46589;SDS011;32313;48.722;9.362;2023-07-22T02:18:25;8.00;;;7.30;;
46589;SDS011;32313;48.722;9.362;2023-07-22T02:20:52;8.50;;;7.63;;
46589;SDS011;32313;48.722;9.362;2023-07-22T02:23:18;7.57;;;6.87;;
46589;SDS011;32313;48.722;9.362;2023-07-22T02:25:44;7.97;;;7.27;;
46589;SDS011;32313;48.722;9.362;2023-07-22T02:28:14;8.10;;;7.33;;
46589;SDS011;32313;48.722;9.362;2023-07-22T02:30:40;8.30;;;7.20;;
46589;SDS011;32313;48.722;9.362;2023-07-22T02:33:07;8.57;;;7.77;;
46589;SDS011;32313;48.722;9.362;2023-07-22T02:35:34;9.40;;;7.77;;
46589;SDS011;32313;48.722;9.362;2023-07-22T02:37:59;9.23;;;8.33;;
46589;SDS011;32313;48.722;9.362;2023-07-22T02:40:26;8.87;;;7.97;;
46589;SDS011;32313;48.722;9.362;2023-07-22T02:42:52;9.53;;;8.73;;
46589;SDS011;32313;48.722;9.362;2023-07-22T02:45:18;9.67;;;8.87;;
46589;SDS011;32313;48.722;9.362;2023-07-22T02:47:43;10.07;;;8.93;;
46589;SDS011;32313;48.722;9.362;2023-07-22T02:50:09;9.73;;;8.87;;
46589;SDS011;32313;48.722;9.362;2023-07-22T02:52:36;9.77;;;8.70;;
46589;SDS011;32313;48.722;9.362;2023-07-22T02:55:05;10.03;;;9.03;;
46589;SDS011;32313;48.722;9.362;2023-07-22T02:57:44;10.07;;;9.00;;
46589;SDS011;32313;48.722;9.362;2023-07-22T03:00:14;9.30;;;8.50;;
46589;SDS011;32313;48.722;9.362;2023-07-22T03:02:51;11.70;;;10.57;;
46589;SDS011;32313;48.722;9.362;2023-07-22T03:05:18;10.57;;;9.67;;
46589;SDS011;32313;48.722;9.362;2023-07-22T03:07:44;11.13;;;9.97;;
46589;SDS011;32313;48.722;9.362;2023-07-22T03:10:10;12.07;;;10.43;;
46589;SDS011;32313;48.722;9.362;2023-07-22T03:12:36;11.43;;;10.23;;
46589;SDS011;32313;48.722;9.362;2023-07-22T03:15:02;9.93;;;9.13;;
46589;SDS011;32313;48.722;9.362;2023-07-22T03:17:34;10.73;;;9.80;;
46589;SDS011;32313;48.722;9.362;2023-07-22T03:20:00;9.30;;;8.30;;
46589;SDS011;32313;48.722;9.362;2023-07-22T03:22:26;10.20;;;9.33;;
46589;SDS011;32313;48.722;9.362;2023-07-22T03:24:52;9.27;;;8.47;;
46589;SDS011;32313;48.722;9.362;2023-07-22T03:27:18;11.03;;;8.40;;
46589;SDS011;32313;48.722;9.362;2023-07-22T03:29:43;9.23;;;8.43;;
46589;SDS011;32313;48.722;9.362;2023-07-22T03:32:09;9.33;;;8.53;;
46589;SDS011;32313;48.722;9.362;2023-07-22T03:34:35;9.77;;;8.87;;
46589;SDS011;32313;48.722;9.362;2023-07-22T03:37:00;9.27;;;8.47;;
46589;SDS011;32313;48.722;9.362;2023-07-22T03:39:26;8.63;;;7.83;;
46589;SDS011;32313;48.722;9.362;2023-07-22T03:41:52;9.97;;;8.97;;
46589;SDS011;32313;48.722;9.362;2023-07-22T03:44:17;9.73;;;8.93;;
46589;SDS011;32313;48.722;9.362;2023-07-22T03:46:43;8.90;;;8.00;;
46589;SDS011;32313;48.722;9.362;2023-07-22T03:49:09;9.10;;;8.20;;
46589;SDS011;32313;48.722;9.362;2023-07-22T03:51:34;9.17;;;8.37;;
46589;SDS011;32313;48.722;9.362;2023-07-22T03:54:00;9.70;;;8.80;;
46589;SDS011;32313;48.722;9.362;2023-07-22T03:56:26;8.73;;;7.97;;
46589;SDS011;32313;48.722;9.362;2023-07-22T03:58:52;9.30;;;8.40;;
46589;SDS011;32313;48.722;9.362;2023-07-22T04:01:18;9.17;;;8.33;;
46589;SDS011;32313;48.722;9.362;2023-07-22T04:03:44;8.97;;;8.07;;
46589;SDS011;32313;48.722;9.362;2023-07-22T04:06:10;8.63;;;7.90;;
46589;SDS011;32313;48.722;9.362;2023-07-22T04:08:36;9.73;;;8.63;;
46589;SDS011;32313;48.722;9.362;2023-07-22T04:11:02;9.17;;;8.13;;
46589;SDS011;32313;48.722;9.362;2023-07-22T04:13:28;7.93;;;7.30;;
46589;SDS011;32313;48.722;9.362;2023-07-22T04:15:54;8.07;;;7.33;;
46589;SDS011;32313;48.722;9.362;2023-07-22T04:18:20;7.70;;;7.00;;
46589;SDS011;32313;48.722;9.362;2023-07-22T04:20:46;7.60;;;7.00;;
46589;SDS011;32313;48.722;9.362;2023-07-22T04:23:15;9.10;;;8.23;;
46589;SDS011;32313;48.722;9.362;2023-07-22T04:25:41;7.43;;;6.83;;
46589;SDS011;32313;48.722;9.362;2023-07-22T04:28:08;8.73;;;7.83;;
46589;SDS011;32313;48.722;9.362;2023-07-22T04:30:34;8.70;;;7.90;;
46589;SDS011;32313;48.722;9.362;2023-07-22T04:33:01;8.13;;;7.40;;
46589;SDS011;32313;48.722;9.362;2023-07-22T04:35:29;9.33;;;8.43;;
46589;SDS011;32313;48.722;9.362;2023-07-22T04:37:56;9.07;;;8.07;;
46589;SDS011;32313;48.722;9.362;2023-07-22T04:40:22;8.77;;;7.97;;
46589;SDS011;32313;48.722;9.362;2023-07-22T04:42:50;9.27;;;8.47;;
46589;SDS011;32313;48.722;9.362;2023-07-22T04:45:16;8.40;;;7.50;;
46589;SDS011;32313;48.722;9.362;2023-07-22T04:47:45;8.43;;;7.33;;
46589;SDS011;32313;48.722;9.362;2023-07-22T04:50:12;8.67;;;7.87;;
46589;SDS011;32313;48.722;9.362;2023-07-22T04:52:38;8.77;;;7.87;;
46589;SDS011;32313;48.722;9.362;2023-07-22T04:55:06;8.67;;;7.97;;
46589;SDS011;32313;48.722;9.362;2023-07-22T04:57:35;9.40;;;8.37;;
46589;SDS011;32313;48.722;9.362;2023-07-22T05:00:02;8.30;;;7.50;;
46589;SDS011;32313;48.722;9.362;2023-07-22T05:02:29;8.83;;;7.67;;
46589;SDS011;32313;48.722;9.362;2023-07-22T05:04:58;8.93;;;8.10;;
46589;SDS011;32313;48.722;9.362;2023-07-22T05:07:23;8.13;;;7.30;;
46589;SDS011;32313;48.722;9.362;2023-07-22T05:09:49;8.20;;;7.47;;
46589;SDS011;32313;48.722;9.362;2023-07-22T05:12:17;8.50;;;7.60;;
46589;SDS011;32313;48.722;9.362;2023-07-22T05:14:44;10.17;;;9.20;;
46589;SDS011;32313;48.722;9.362;2023-07-22T05:17:11;8.00;;;7.37;;
46589;SDS011;32313;48.722;9.362;2023-07-22T05:19:36;8.70;;;7.83;;
46589;SDS011;32313;48.722;9.362;2023-07-22T05:22:02;9.17;;;8.37;;
46589;SDS011;32313;48.722;9.362;2023-07-22T05:24:28;10.00;;;9.00;;
46589;SDS011;32313;48.722;9.362;2023-07-22T05:26:54;9.23;;;8.33;;
46589;SDS011;32313;48.722;9.362;2023-07-22T05:29:20;9.03;;;8.33;;
46589;SDS011;32313;48.722;9.362;2023-07-22T05:31:45;8.53;;;7.83;;
46589;SDS011;32313;48.722;9.362;2023-07-22T05:34:11;9.17;;;8.27;;
46589;SDS011;32313;48.722;9.362;2023-07-22T05:36:37;7.83;;;7.17;;
46589;SDS011;32313;48.722;9.362;2023-07-22T05:39:03;10.17;;;9.13;;
46589;SDS011;32313;48.722;9.362;2023-07-22T05:41:29;8.93;;;8.13;;
46589;SDS011;32313;48.722;9.362;2023-07-22T05:43:55;11.00;;;9.13;;
46589;SDS011;32313;48.722;9.362;2023-07-22T05:46:20;8.97;;;8.07;;
46589;SDS011;32313;48.722;9.362;2023-07-22T05:48:46;11.87;;;8.00;;
46589;SDS011;32313;48.722;9.362;2023-07-22T05:51:12;7.63;;;6.90;;
46589;SDS011;32313;48.722;9.362;2023-07-22T05:53:38;8.33;;;7.60;;
46589;SDS011;32313;48.722;9.362;2023-07-22T05:56:04;7.80;;;7.00;;
46589;SDS011;32313;48.722;9.362;2023-07-22T05:58:30;8.70;;;7.93;;
46589;SDS011;32313;48.722;9.362;2023-07-22T06:00:55;7.93;;;7.13;;
46589;SDS011;32313;48.722;9.362;2023-07-22T06:03:21;8.00;;;6.83;;
46589;SDS011;32313;48.722;9.362;2023-07-22T06:05:47;7.90;;;7.20;;
46589;SDS011;32313;48.722;9.362;2023-07-22T06:08:13;8.57;;;7.77;;
46589;SDS011;32313;48.722;9.362;2023-07-22T06:10:42;8.30;;;7.50;;
46589;SDS011;32313;48.722;9.362;2023-07-22T06:13:08;9.30;;;8.30;;
46589;SDS011;32313;48.722;9.362;2023-07-22T06:15:33;8.13;;;7.33;;
46589;SDS011;32313;48.722;9.362;2023-07-22T06:18:00;8.03;;;7.00;;
46589;SDS011;32313;48.722;9.362;2023-07-22T06:20:26;7.30;;;6.63;;
46589;SDS011;32313;48.722;9.362;2023-07-22T06:22:51;6.43;;;5.93;;
46589;SDS011;32313;48.722;9.362;2023-07-22T06:25:17;6.20;;;5.70;;
46589;SDS011;32313;48.722;9.362;2023-07-22T06:27:43;8.47;;;6.97;;
46589;SDS011;32313;48.722;9.362;2023-07-22T06:30:09;6.17;;;5.60;;
46589;SDS011;32313;48.722;9.362;2023-07-22T06:32:36;7.00;;;5.90;;
46589;SDS011;32313;48.722;9.362;2023-07-22T06:35:03;5.83;;;5.23;;
46589;SDS011;32313;48.722;9.362;2023-07-22T06:37:29;12.27;;;6.20;;
46589;SDS011;32313;48.722;9.362;2023-07-22T06:39:55;6.20;;;5.67;;
46589;SDS011;32313;48.722;9.362;2023-07-22T06:42:21;6.00;;;5.00;;
46589;SDS011;32313;48.722;9.362;2023-07-22T06:44:46;5.60;;;5.10;;
46589;SDS011;32313;48.722;9.362;2023-07-22T06:47:12;5.43;;;5.00;;
46589;SDS011;32313;48.722;9.362;2023-07-22T06:49:39;5.10;;;4.60;;
46589;SDS011;32313;48.722;9.362;2023-07-22T06:52:06;5.40;;;4.90;;
46589;SDS011;32313;48.722;9.362;2023-07-22T06:54:32;5.00;;;4.30;;
46589;SDS011;32313;48.722;9.362;2023-07-22T06:56:57;4.40;;;4.00;;
46589;SDS011;32313;48.722;9.362;2023-07-22T06:59:23;4.60;;;4.20;;
46589;SDS011;32313;48.722;9.362;2023-07-22T07:01:49;4.67;;;3.60;;
46589;SDS011;32313;48.722;9.362;2023-07-22T07:04:14;4.83;;;4.10;;
46589;SDS011;32313;48.722;9.362;2023-07-22T07:06:40;3.73;;;3.43;;
46589;SDS011;32313;48.722;9.362;2023-07-22T07:09:06;4.30;;;3.00;;
46589;SDS011;32313;48.722;9.362;2023-07-22T07:11:31;3.87;;;3.43;;
46589;SDS011;32313;48.722;9.362;2023-07-22T07:13:57;3.93;;;3.53;;
46589;SDS011;32313;48.722;9.362;2023-07-22T07:16:27;3.83;;;3.10;;
46589;SDS011;32313;48.722;9.362;2023-07-22T07:18:54;3.80;;;2.87;;
46589;SDS011;32313;48.722;9.362;2023-07-22T07:21:20;3.47;;;3.17;;
46589;SDS011;32313;48.722;9.362;2023-07-22T07:23:47;3.40;;;2.87;;
46589;SDS011;32313;48.722;9.362;2023-07-22T07:26:13;5.50;;;3.30;;
46589;SDS011;32313;48.722;9.362;2023-07-22T07:28:39;3.50;;;3.20;;
46589;SDS011;32313;48.722;9.362;2023-07-22T07:31:05;3.27;;;2.90;;
46589;SDS011;32313;48.722;9.362;2023-07-22T07:33:31;6.67;;;3.10;;
46589;SDS011;32313;48.722;9.362;2023-07-22T07:35:57;4.33;;;3.13;;
46589;SDS011;32313;48.722;9.362;2023-07-22T07:38:23;5.23;;;3.03;;
46589;SDS011;32313;48.722;9.362;2023-07-22T07:40:52;3.53;;;2.70;;
46589;SDS011;32313;48.722;9.362;2023-07-22T07:43:20;3.80;;;2.90;;
46589;SDS011;32313;48.722;9.362;2023-07-22T07:45:46;4.33;;;3.00;;
46589;SDS011;32313;48.722;9.362;2023-07-22T07:48:12;4.37;;;3.17;;
46589;SDS011;32313;48.722;9.362;2023-07-22T07:50:38;3.27;;;2.53;;
46589;SDS011;32313;48.722;9.362;2023-07-22T07:53:04;4.00;;;2.67;;
46589;SDS011;32313;48.722;9.362;2023-07-22T07:55:29;3.23;;;2.90;;
46589;SDS011;32313;48.722;9.362;2023-07-22T07:57:55;3.90;;;2.80;;
46589;SDS011;32313;48.722;9.362;2023-07-22T08:00:21;2.87;;;2.53;;
46589;SDS011;32313;48.722;9.362;2023-07-22T08:02:46;3.27;;;2.50;;
46589;SDS011;32313;48.722;9.362;2023-07-22T08:05:12;2.93;;;2.53;;
46589;SDS011;32313;48.722;9.362;2023-07-22T08:07:38;4.63;;;3.03;;
46589;SDS011;32313;48.722;9.362;2023-07-22T08:10:05;4.53;;;3.10;;
46589;SDS011;32313;48.722;9.362;2023-07-22T08:12:32;3.27;;;2.70;;
46589;SDS011;32313;48.722;9.362;2023-07-22T08:14:58;4.20;;;2.77;;
46589;SDS011;32313;48.722;9.362;2023-07-22T08:17:24;2.72;;;2.53;;
46589;SDS011;32313;48.722;9.362;2023-07-22T08:19:51;4.50;;;2.80;;
46589;SDS011;32313;48.722;9.362;2023-07-22T08:22:17;2.80;;;2.27;;
46589;SDS011;32313;48.722;9.362;2023-07-22T08:24:43;2.63;;;2.43;;
46589;SDS011;32313;48.722;9.362;2023-07-22T08:27:09;2.45;;;2.25;;
46589;SDS011;32313;48.722;9.362;2023-07-22T08:29:35;4.10;;;2.60;;
46589;SDS011;32313;48.722;9.362;2023-07-22T08:32:01;3.80;;;2.45;;
46589;SDS011;32313;48.722;9.362;2023-07-22T08:34:27;3.88;;;2.50;;
46589;SDS011;32313;48.722;9.362;2023-07-22T08:36:52;2.20;;;2.00;;
46589;SDS011;32313;48.722;9.362;2023-07-22T08:39:18;2.45;;;2.20;;
46589;SDS011;32313;48.722;9.362;2023-07-22T08:41:47;4.00;;;2.60;;
46589;SDS011;32313;48.722;9.362;2023-07-22T08:44:16;3.22;;;1.80;;
46589;SDS011;32313;48.722;9.362;2023-07-22T08:46:47;2.25;;;1.90;;
46589;SDS011;32313;48.722;9.362;2023-07-22T08:49:15;2.10;;;1.90;;
46589;SDS011;32313;48.722;9.362;2023-07-22T08:51:41;2.13;;;1.88;;
46589;SDS011;32313;48.722;9.362;2023-07-22T08:54:08;3.50;;;1.70;;
46589;SDS011;32313;48.722;9.362;2023-07-22T08:56:34;2.58;;;1.75;;
46589;SDS011;32313;48.722;9.362;2023-07-22T08:59:01;2.00;;;1.70;;
46589;SDS011;32313;48.722;9.362;2023-07-22T09:01:26;2.58;;;1.80;;
46589;SDS011;32313;48.722;9.362;2023-07-22T09:03:53;2.83;;;1.58;;
46589;SDS011;32313;48.722;9.362;2023-07-22T09:06:21;6.22;;;2.03;;
46589;SDS011;32313;48.722;9.362;2023-07-22T09:08:47;3.20;;;2.00;;
46589;SDS011;32313;48.722;9.362;2023-07-22T09:11:13;1.92;;;1.83;;
46589;SDS011;32313;48.722;9.362;2023-07-22T09:13:40;2.33;;;1.98;;
46589;SDS011;32313;48.722;9.362;2023-07-22T09:16:09;2.17;;;1.90;;
46589;SDS011;32313;48.722;9.362;2023-07-22T09:18:36;2.00;;;1.75;;
46589;SDS011;32313;48.722;9.362;2023-07-22T09:21:01;2.08;;;1.95;;
46589;SDS011;32313;48.722;9.362;2023-07-22T09:23:34;2.55;;;1.80;;
46589;SDS011;32313;48.722;9.362;2023-07-22T09:26:08;1.63;;;1.52;;
46589;SDS011;32313;48.722;9.362;2023-07-22T09:28:47;1.80;;;1.70;;
46589;SDS011;32313;48.722;9.362;2023-07-22T09:31:17;2.15;;;1.60;;
46589;SDS011;32313;48.722;9.362;2023-07-22T09:33:43;2.40;;;1.50;;
46589;SDS011;32313;48.722;9.362;2023-07-22T09:36:12;2.95;;;1.67;;
46589;SDS011;32313;48.722;9.362;2023-07-22T09:38:38;1.50;;;1.40;;
46589;SDS011;32313;48.722;9.362;2023-07-22T09:41:04;2.17;;;1.65;;
46589;SDS011;32313;48.722;9.362;2023-07-22T09:43:30;2.42;;;1.88;;
46589;SDS011;32313;48.722;9.362;2023-07-22T09:45:56;1.90;;;1.70;;
46589;SDS011;32313;48.722;9.362;2023-07-22T09:48:41;2.42;;;1.70;;
46589;SDS011;32313;48.722;9.362;2023-07-22T09:51:11;1.77;;;1.67;;
46589;SDS011;32313;48.722;9.362;2023-07-22T09:53:43;2.42;;;1.80;;
46589;SDS011;32313;48.722;9.362;2023-07-22T09:56:10;2.15;;;1.80;;
46589;SDS011;32313;48.722;9.362;2023-07-22T09:58:36;2.50;;;2.10;;
46589;SDS011;32313;48.722;9.362;2023-07-22T10:01:02;2.80;;;2.23;;
46589;SDS011;32313;48.722;9.362;2023-07-22T10:03:30;3.23;;;2.00;;
46589;SDS011;32313;48.722;9.362;2023-07-22T10:05:58;3.47;;;2.43;;
46589;SDS011;32313;48.722;9.362;2023-07-22T10:08:27;2.63;;;2.00;;
46589;SDS011;32313;48.722;9.362;2023-07-22T10:10:58;2.10;;;1.80;;
46589;SDS011;32313;48.722;9.362;2023-07-22T10:13:26;1.80;;;1.70;;
46589;SDS011;32313;48.722;9.362;2023-07-22T10:15:52;1.80;;;1.60;;
46589;SDS011;32313;48.722;9.362;2023-07-22T10:18:18;1.90;;;1.80;;
46589;SDS011;32313;48.722;9.362;2023-07-22T10:20:48;2.87;;;2.10;;
46589;SDS011;32313;48.722;9.362;2023-07-22T10:23:14;1.83;;;1.70;;
46589;SDS011;32313;48.722;9.362;2023-07-22T10:25:40;2.00;;;1.73;;
46589;SDS011;32313;48.722;9.362;2023-07-22T10:28:08;2.10;;;1.90;;
46589;SDS011;32313;48.722;9.362;2023-07-22T10:30:34;2.47;;;1.77;;
46589;SDS011;32313;48.722;9.362;2023-07-22T10:33:00;1.85;;;1.75;;
46589;SDS011;32313;48.722;9.362;2023-07-22T10:38:10;2.03;;;1.83;;
46589;SDS011;32313;48.722;9.362;2023-07-22T10:40:55;1.73;;;1.60;;
46589;SDS011;32313;48.722;9.362;2023-07-22T10:43:31;1.50;;;1.40;;
46589;SDS011;32313;48.722;9.362;2023-07-22T10:46:06;1.65;;;1.40;;
46589;SDS011;32313;48.722;9.362;2023-07-22T10:48:38;4.78;;;1.60;;
46589;SDS011;32313;48.722;9.362;2023-07-22T10:51:06;2.10;;;1.88;;
46589;SDS011;32313;48.722;9.362;2023-07-22T10:53:32;1.98;;;1.63;;
46589;SDS011;32313;48.722;9.362;2023-07-22T10:56:11;1.70;;;1.60;;
46589;SDS011;32313;48.722;9.362;2023-07-22T10:58:56;2.10;;;1.70;;
46589;SDS011;32313;48.722;9.362;2023-07-22T11:06:32;1.70;;;1.60;;
46589;SDS011;32313;48.722;9.362;2023-07-22T11:08:59;1.98;;;1.88;;
46589;SDS011;32313;48.722;9.362;2023-07-22T11:11:41;1.60;;;1.50;;
46589;SDS011;32313;48.722;9.362;2023-07-22T11:14:16;1.67;;;1.58;;
46589;SDS011;32313;48.722;9.362;2023-07-22T11:16:44;2.00;;;1.80;;
46589;SDS011;32313;48.722;9.362;2023-07-22T11:19:15;1.70;;;1.60;;
46589;SDS011;32313;48.722;9.362;2023-07-22T11:21:42;2.22;;;1.80;;
46589;SDS011;32313;48.722;9.362;2023-07-22T11:24:08;1.75;;;1.65;;
46589;SDS011;32313;48.722;9.362;2023-07-22T11:26:34;2.28;;;1.65;;
46589;SDS011;32313;48.722;9.362;2023-07-22T11:29:00;1.85;;;1.75;;
46589;SDS011;32313;48.722;9.362;2023-07-22T11:31:30;1.80;;;1.55;;
46589;SDS011;32313;48.722;9.362;2023-07-22T11:34:02;1.85;;;1.55;;
46589;SDS011;32313;48.722;9.362;2023-07-22T11:36:31;1.92;;;1.70;;
46589;SDS011;32313;48.722;9.362;2023-07-22T11:39:03;2.35;;;1.73;;
46589;SDS011;32313;48.722;9.362;2023-07-22T11:41:31;2.17;;;1.88;;
46589;SDS011;32313;48.722;9.362;2023-07-22T11:43:58;4.70;;;1.98;;
46589;SDS011;32313;48.722;9.362;2023-07-22T11:46:24;1.90;;;1.80;;
46589;SDS011;32313;48.722;9.362;2023-07-22T11:48:51;3.15;;;1.75;;
46589;SDS011;32313;48.722;9.362;2023-07-22T11:51:19;2.58;;;2.03;;
46589;SDS011;32313;48.722;9.362;2023-07-22T11:53:46;2.53;;;1.90;;
46589;SDS011;32313;48.722;9.362;2023-07-22T11:56:17;3.83;;;1.88;;
46589;SDS011;32313;48.722;9.362;2023-07-22T11:58:54;2.60;;;1.77;;
46589;SDS011;32313;48.722;9.362;2023-07-22T12:01:21;2.17;;;2.00;;
46589;SDS011;32313;48.722;9.362;2023-07-22T12:03:47;2.33;;;2.00;;
46589;SDS011;32313;48.722;9.362;2023-07-22T12:06:14;1.95;;;1.85;;
46589;SDS011;32313;48.722;9.362;2023-07-22T12:08:45;2.38;;;1.90;;
46589;SDS011;32313;48.722;9.362;2023-07-22T12:11:21;2.63;;;1.85;;
46589;SDS011;32313;48.722;9.362;2023-07-22T12:14:05;3.33;;;2.00;;
46589;SDS011;32313;48.722;9.362;2023-07-22T12:16:31;2.42;;;1.90;;
46589;SDS011;32313;48.722;9.362;2023-07-22T12:19:03;4.05;;;2.10;;
46589;SDS011;32313;48.722;9.362;2023-07-22T12:21:29;2.13;;;1.92;;
46589;SDS011;32313;48.722;9.362;2023-07-22T12:23:55;2.53;;;1.90;;
46589;SDS011;32313;48.722;9.362;2023-07-22T12:26:21;1.80;;;1.70;;
46589;SDS011;32313;48.722;9.362;2023-07-22T12:28:47;2.00;;;1.85;;
46589;SDS011;32313;48.722;9.362;2023-07-22T12:31:13;2.42;;;1.88;;
46589;SDS011;32313;48.722;9.362;2023-07-22T12:33:38;2.75;;;1.75;;
46589;SDS011;32313;48.722;9.362;2023-07-22T12:36:04;1.83;;;1.70;;
46589;SDS011;32313;48.722;9.362;2023-07-22T12:38:30;2.10;;;1.90;;
46589;SDS011;32313;48.722;9.362;2023-07-22T12:40:56;2.33;;;2.05;;
46589;SDS011;32313;48.722;9.362;2023-07-22T12:43:22;2.95;;;1.80;;
46589;SDS011;32313;48.722;9.362;2023-07-22T12:45:48;2.22;;;1.85;;
46589;SDS011;32313;48.722;9.362;2023-07-22T12:48:13;2.50;;;2.30;;
46589;SDS011;32313;48.722;9.362;2023-07-22T12:50:39;3.08;;;2.03;;
46589;SDS011;32313;48.722;9.362;2023-07-22T12:53:05;2.90;;;2.10;;
46589;SDS011;32313;48.722;9.362;2023-07-22T12:55:31;2.17;;;1.85;;
46589;SDS011;32313;48.722;9.362;2023-07-22T12:57:57;3.38;;;2.22;;
46589;SDS011;32313;48.722;9.362;2023-07-22T13:00:22;2.78;;;2.00;;
46589;SDS011;32313;48.722;9.362;2023-07-22T13:02:48;1.80;;;1.67;;
46589;SDS011;32313;48.722;9.362;2023-07-22T13:05:14;2.25;;;2.00;;
46589;SDS011;32313;48.722;9.362;2023-07-22T13:07:39;1.70;;;1.60;;
46589;SDS011;32313;48.722;9.362;2023-07-22T13:10:05;2.10;;;1.90;;
46589;SDS011;32313;48.722;9.362;2023-07-22T13:12:35;2.72;;;1.90;;
46589;SDS011;32313;48.722;9.362;2023-07-22T13:15:02;1.95;;;1.80;;
46589;SDS011;32313;48.722;9.362;2023-07-22T13:17:28;1.77;;;1.67;;
46589;SDS011;32313;48.722;9.362;2023-07-22T13:19:54;2.38;;;2.17;;
46589;SDS011;32313;48.722;9.362;2023-07-22T13:22:19;2.20;;;2.00;;
46589;SDS011;32313;48.722;9.362;2023-07-22T13:24:45;2.50;;;2.13;;
46589;SDS011;32313;48.722;9.362;2023-07-22T13:27:11;3.10;;;1.90;;
46589;SDS011;32313;48.722;9.362;2023-07-22T13:29:37;2.20;;;2.00;;
46589;SDS011;32313;48.722;9.362;2023-07-22T13:32:03;2.42;;;2.10;;
46589;SDS011;32313;48.722;9.362;2023-07-22T13:34:29;2.35;;;2.08;;
46589;SDS011;32313;48.722;9.362;2023-07-22T13:36:55;3.15;;;2.25;;
46589;SDS011;32313;48.722;9.362;2023-07-22T13:39:20;2.40;;;2.20;;
46589;SDS011;32313;48.722;9.362;2023-07-22T13:41:46;2.30;;;2.10;;
46589;SDS011;32313;48.722;9.362;2023-07-22T13:44:12;2.92;;;2.50;;
46589;SDS011;32313;48.722;9.362;2023-07-22T13:46:38;2.75;;;2.50;;
46589;SDS011;32313;48.722;9.362;2023-07-22T13:49:03;3.03;;;2.30;;
46589;SDS011;32313;48.722;9.362;2023-07-22T13:51:29;2.97;;;2.50;;
46589;SDS011;32313;48.722;9.362;2023-07-22T13:53:55;3.70;;;2.40;;
46589;SDS011;32313;48.722;9.362;2023-07-22T13:56:22;3.30;;;2.42;;
46589;SDS011;32313;48.722;9.362;2023-07-22T13:58:48;2.47;;;2.28;;
46589;SDS011;32313;48.722;9.362;2023-07-22T14:01:13;2.67;;;2.45;;
46589;SDS011;32313;48.722;9.362;2023-07-22T14:03:39;2.95;;;2.63;;
46589;SDS011;32313;48.722;9.362;2023-07-22T14:06:04;3.97;;;2.47;;
46589;SDS011;32313;48.722;9.362;2023-07-22T14:08:30;2.60;;;2.40;;
46589;SDS011;32313;48.722;9.362;2023-07-22T14:10:56;3.58;;;2.65;;
46589;SDS011;32313;48.722;9.362;2023-07-22T14:13:22;4.25;;;2.72;;
46589;SDS011;32313;48.722;9.362;2023-07-22T14:15:48;4.85;;;2.85;;
46589;SDS011;32313;48.722;9.362;2023-07-22T14:18:14;2.97;;;2.67;;
46589;SDS011;32313;48.722;9.362;2023-07-22T14:20:45;2.65;;;2.45;;
46589;SDS011;32313;48.722;9.362;2023-07-22T14:23:11;3.08;;;2.70;;
46589;SDS011;32313;48.722;9.362;2023-07-22T14:25:37;2.55;;;2.35;;
46589;SDS011;32313;48.722;9.362;2023-07-22T14:28:03;3.13;;;2.88;;
46589;SDS011;32313;48.722;9.362;2023-07-22T14:30:29;2.65;;;2.45;;
46589;SDS011;32313;48.722;9.362;2023-07-22T14:32:54;3.85;;;2.63;;
46589;SDS011;32313;48.722;9.362;2023-07-22T14:35:20;3.10;;;2.55;;
46589;SDS011;32313;48.722;9.362;2023-07-22T14:37:46;3.20;;;2.90;;
46589;SDS011;32313;48.722;9.362;2023-07-22T14:40:13;3.65;;;3.17;;
46589;SDS011;32313;48.722;9.362;2023-07-22T14:42:39;3.45;;;2.80;;
46589;SDS011;32313;48.722;9.362;2023-07-22T14:45:05;3.45;;;2.80;;
46589;SDS011;32313;48.722;9.362;2023-07-22T14:47:31;4.57;;;2.70;;
46589;SDS011;32313;48.722;9.362;2023-07-22T14:49:57;4.65;;;3.00;;
46589;SDS011;32313;48.722;9.362;2023-07-22T14:52:23;3.88;;;2.97;;